Time;durP1;ratioP1;P1;durP2;ratioP2;P2;SDS_P1;SDS_P2;PMS_P1;PMS_P2;Temp;Humidity;BMP_temperature;BMP_pressure;BME280_temperature;BME280_humidity;BME280_pressure;Samples;Min_cycle;Max_cycle;Signal;HPM_P1;HPM_P2
2022/08/21 00:00:42;;;;;;;12.68;4.05;;;;;;;16.04;100.00;101822.19;7388535;19;19927;-74
2022/08/21 00:03:14;;;;;;;9.93;4.13;;;;;;;16.02;100.00;101824.84;7387059;19;20015;-73
2022/08/21 00:05:47;;;;;;;11.25;4.20;;;;;;;15.99;100.00;101829.22;7389017;19;20036;-74
2022/08/21 00:08:17;;;;;;;11.07;4.30;;;;;;;15.95;100.00;101825.66;7387556;19;20011;-73
2022/08/21 00:10:50;;;;;;;16.00;4.40;;;;;;;15.92;100.00;101832.69;7388203;19;20300;-75
2022/08/21 00:13:20;;;;;;;;;;;;;;;15.89;100.00;101827.38;7391255;19;20015;-75
2022/08/21 00:15:51;;;;;;;9.27;3.85;;;;;;;15.86;100.00;101827.38;7392751;19;19936;-75
2022/08/21 00:18:22;;;;;;;16.08;4.68;;;;;;;15.85;100.00;101825.59;7388729;19;20014;-73
2022/08/21 00:20:53;;;;;;;11.15;5.10;;;;;;;15.81;100.00;101819.41;7386102;19;20703;-74
2022/08/21 00:23:24;;;;;;;15.73;5.03;;;;;;;15.78;100.00;101826.41;7385350;19;20011;-73
2022/08/21 00:25:57;;;;;;;9.98;4.93;;;;;;;15.78;100.00;101826.41;7386599;19;20041;-74
2022/08/21 00:28:36;;;;;;;10.77;4.45;;;;;;;15.73;100.00;101815.81;7390524;19;20010;-75
2022/08/21 00:31:07;;;;;;;9.30;4.55;;;;;;;15.68;100.00;101815.78;7388855;19;20044;-75
2022/08/21 00:33:37;;;;;;;9.23;4.18;;;;;;;15.65;100.00;101818.38;7392559;19;20039;-76
2022/08/21 00:36:07;;;;;;;10.57;3.65;;;;;;;15.65;100.00;101817.50;7390002;19;20010;-72
2022/08/21 00:38:38;;;;;;;11.50;4.60;;;;;;;15.61;100.00;101815.72;7381976;19;20039;-75
2022/08/21 00:41:13;;;;;;;12.35;3.90;;;;;;;15.57;100.00;101814.84;7384702;19;20508;-73
2022/08/21 00:44:04;;;;;;;10.13;4.93;;;;;;;15.54;100.00;101814.78;7383891;19;20015;-75
2022/08/21 00:46:34;;;;;;;10.95;5.30;;;;;;;15.54;100.00;101813.88;7388463;19;20006;-76
2022/08/21 00:49:07;;;;;;;16.65;5.93;;;;;;;15.52;100.00;101816.50;7387302;19;20504;-74
2022/08/21 00:51:46;;;;;;;10.27;4.40;;;;;;;15.50;100.00;101809.44;7385869;19;20063;-74
2022/08/21 00:54:17;;;;;;;9.02;3.55;;;;;;;15.48;100.00;101809.44;7380568;19;20021;-75
2022/08/21 00:56:55;;;;;;;10.52;3.90;;;;;;;15.45;100.00;101798.81;7383637;19;20685;-76
2022/08/21 00:59:35;;;;;;;16.05;4.68;;;;;;;15.43;100.00;101802.34;7384505;19;20055;-74
2022/08/21 01:02:10;;;;;;;17.13;7.40;;;;;;;15.39;100.00;101804.06;7384929;19;20477;-75
2022/08/21 01:04:40;;;;;;;14.15;7.57;;;;;;;15.36;100.00;101804.91;7384471;19;20065;-74
2022/08/21 01:07:12;;;;;;;13.57;5.68;;;;;;;15.30;100.00;101802.22;7385020;19;20487;-75
2022/08/21 01:09:43;;;;;;;62.60;33.05;;;;;;;15.30;100.00;101803.97;7382092;19;20007;-75
2022/08/21 01:12:15;;;;;;;26.95;17.27;;;;;;;15.27;100.00;101798.66;7384523;19;20854;-74
2022/08/21 01:14:47;;;;;;;23.95;11.48;;;;;;;15.28;100.00;101797.78;7382356;19;20014;-74
2022/08/21 01:17:19;;;;;;;23.20;10.40;;;;;;;15.25;100.00;101806.56;7381888;19;20021;-75
2022/08/21 01:19:49;;;;;;;17.60;7.43;;;;;;;15.22;100.00;101806.56;7381168;19;20007;-74
2022/08/21 01:22:22;;;;;;;17.88;6.28;;;;;;;15.20;100.00;101810.06;7382979;19;20021;-73
2022/08/21 01:24:52;;;;;;;14.30;4.97;;;;;;;15.16;100.00;101806.50;7382323;19;20002;-74
2022/08/21 01:27:23;;;;;;;12.43;4.10;;;;;;;15.13;100.00;101806.47;7383239;19;20014;-75
2022/08/21 01:29:57;;;;;;;11.98;4.13;;;;;;;15.08;100.00;101802.88;7382611;19;20014;-73
2022/08/21 01:32:38;;;;;;;12.55;3.78;;;;;;;15.08;100.00;101799.34;7382829;19;20511;-74
2022/08/21 01:35:11;;;;;;;11.93;4.10;;;;;;;15.03;100.00;101804.59;7385676;19;20014;-75
2022/08/21 01:37:44;;;;;;;9.38;4.18;;;;;;;15.00;100.00;101800.16;7385947;19;20006;-75
2022/08/21 01:40:15;;;;;;;9.95;4.15;;;;;;;14.98;100.00;101801.03;7370935;19;20018;-74
2022/08/21 01:42:46;;;;;;;14.20;6.70;;;;;;;14.96;100.00;101797.47;7385566;19;20013;-73
2022/08/21 01:45:19;;;;;;;13.65;6.90;;;;;;;14.90;100.00;101798.28;7379897;19;20323;-74
2022/08/21 01:47:49;;;;;;;15.90;6.45;;;;;;;14.86;100.00;101793.84;7382763;19;20003;-73
2022/08/21 01:50:23;;;;;;;10.38;5.22;;;;;;;14.84;100.00;101792.94;7381980;19;20006;-76
2022/08/21 01:52:56;;;;;;;11.23;4.85;;;;;;;14.80;100.00;101791.13;7374954;19;20014;-76
2022/08/21 01:55:26;;;;;;;15.07;4.82;;;;;;;14.82;100.00;101785.88;7385229;19;20036;-76
2022/08/21 01:57:56;;;;;;;13.75;5.68;;;;;;;14.88;100.00;101794.75;7385026;19;20018;-72
2022/08/21 02:00:28;;;;;;;13.07;5.38;;;;;;;14.97;100.00;101788.69;7385286;19;20027;-73
2022/08/21 02:03:04;;;;;;;13.32;5.03;;;;;;;15.00;100.00;101779.03;7385875;19;20789;-74
2022/08/21 02:05:34;;;;;;;12.77;5.57;;;;;;;15.00;100.00;101779.03;7389270;19;20007;-75
2022/08/21 02:08:09;;;;;;;19.58;5.30;;;;;;;14.98;100.00;101771.97;7392793;19;20044;-75
2022/08/21 02:10:42;;;;;;;12.10;4.88;;;;;;;14.98;100.00;101775.50;7387820;19;20018;-75
2022/08/21 02:13:17;;;;;;;14.75;5.60;;;;;;;15.00;100.00;101770.22;7385787;19;20498;-76
2022/08/21 02:15:47;;;;;;;15.88;5.28;;;;;;;15.08;100.00;101778.22;7388695;19;20048;-76
2022/08/21 02:18:18;;;;;;;13.75;5.00;;;;;;;15.08;100.00;101767.66;7383960;19;20017;-76
2022/08/21 02:20:50;;;;;;;13.13;4.63;;;;;;;15.07;100.00;101764.13;7382587;19;20003;-74
2022/08/21 02:23:27;;;;;;;14.13;5.65;;;;;;;15.04;100.00;101769.38;7380508;19;20475;-74
2022/08/21 02:25:57;;;;;;;13.80;6.00;;;;;;;14.99;100.00;101771.97;7379966;19;20074;-75
2022/08/21 02:28:28;;;;;;;12.25;4.88;;;;;;;14.98;100.00;101770.22;7381173;19;20018;-75
2022/08/21 02:31:09;;;;;;;11.32;4.40;;;;;;;14.97;100.00;101775.47;7382154;19;20134;-75
2022/08/21 02:33:40;;;;;;;12.23;4.30;;;;;;;14.94;100.00;101775.44;7382600;19;20011;-75
2022/08/21 02:36:13;;;;;;;9.93;3.83;;;;;;;14.94;100.00;101767.50;7381543;19;20129;-72
2022/08/21 02:38:46;;;;;;;14.05;5.88;;;;;;;14.92;100.00;101772.78;7379515;19;20011;-73
2022/08/21 02:41:19;;;;;;;12.88;4.63;;;;;;;14.92;100.00;101766.63;7378239;19;20010;-74
2022/08/21 02:43:49;;;;;;;10.45;4.00;;;;;;;14.88;100.00;101767.44;7380134;19;20046;-75
2022/08/21 02:46:22;;;;;;;11.23;4.20;;;;;;;14.88;100.00;101764.81;7374657;19;20014;-75
2022/08/21 02:48:52;;;;;;;15.70;4.15;;;;;;;14.88;100.00;101763.06;7381129;19;20010;-74
2022/08/21 02:51:24;;;;;;;13.15;4.10;;;;;;;14.90;100.00;101763.06;7379827;19;20040;-73
2022/08/21 02:53:59;;;;;;;;;;;;;;;14.90;100.00;101768.34;7373104;19;20434;-73
2022/08/21 02:56:32;;;;;;;6.45;3.20;;;;;;;14.89;100.00;101761.31;7375842;19;19907;-73
2022/08/21 02:59:04;;;;;;;8.95;3.75;;;;;;;14.85;100.00;101756.84;7377478;19;20021;-75
2022/08/21 03:01:34;;;;;;;11.52;3.53;;;;;;;14.87;100.00;101766.56;7378541;19;20010;-74
2022/08/21 03:04:05;;;;;;;9.60;4.05;;;;;;;14.89;100.00;101763.94;7377739;19;20376;-75
2022/08/21 03:06:38;;;;;;;10.43;3.92;;;;;;;14.86;100.00;101756.00;7381243;19;20018;-76
2022/08/21 03:09:10;;;;;;;10.18;3.65;;;;;;;14.88;100.00;101754.25;7380553;19;20010;-72
2022/08/21 03:11:41;;;;;;;8.18;3.45;;;;;;;14.88;100.00;101757.78;7381405;19;20039;-74
2022/08/21 03:14:11;;;;;;;10.85;3.65;;;;;;;14.89;100.00;101756.03;7379675;19;20007;-74
2022/08/21 03:16:43;;;;;;;10.40;3.45;;;;;;;14.87;100.00;101745.44;7379592;19;20034;-74
2022/08/21 03:19:14;;;;;;;9.55;3.60;;;;;;;14.87;100.00;101745.44;7377827;19;20021;-73
2022/08/21 03:21:44;;;;;;;10.50;3.78;;;;;;;14.83;100.00;101738.34;7381628;19;20028;-74
2022/08/21 03:24:16;;;;;;;9.85;3.67;;;;;;;14.82;100.00;101746.25;7382476;19;20330;-73
2022/08/21 03:26:51;;;;;;;11.63;3.75;;;;;;;14.82;100.00;101741.88;7380377;19;20031;-74
2022/08/21 03:29:21;;;;;;;9.60;3.40;;;;;;;14.80;100.00;101742.72;7381079;19;20036;-75
2022/08/21 03:31:52;;;;;;;9.13;3.40;;;;;;;14.79;100.00;101740.94;7383311;19;20040;-75
2022/08/21 03:34:22;;;;;;;8.98;3.10;;;;;;;14.76;100.00;101736.53;7388169;19;20646;-76
2022/08/21 03:36:52;;;;;;;9.48;3.30;;;;;;;14.80;100.00;101737.44;7392784;19;20031;-74
2022/08/21 03:39:25;;;;;;;9.95;3.40;;;;;;;14.81;100.00;101733.94;7390526;19;20014;-75
2022/08/21 03:41:57;;;;;;;9.98;3.75;;;;;;;14.81;100.00;101734.81;7396007;19;20043;-75
2022/08/21 03:44:31;;;;;;;11.00;4.03;;;;;;;14.76;100.00;101730.34;7392867;19;20058;-73
2022/08/21 03:47:03;;;;;;;13.85;4.10;;;;;;;14.77;100.00;101732.13;7387560;19;20003;-72
2022/08/21 03:49:34;;;;;;;11.25;3.80;;;;;;;14.76;100.00;101735.63;7388318;19;20019;-75
2022/08/21 03:52:08;;;;;;;10.82;3.55;;;;;;;14.76;100.00;101735.63;7388124;19;20143;-74
2022/08/21 03:54:41;;;;;;;8.88;3.50;;;;;;;14.72;100.00;101734.72;7385048;19;20396;-74
2022/08/21 03:57:11;;;;;;;9.35;3.55;;;;;;;14.72;100.00;101734.72;7386534;19;20010;-75
2022/08/21 03:59:43;;;;;;;15.00;5.40;;;;;;;14.78;100.00;101734.78;7387200;19;20011;-74
2022/08/21 04:02:16;;;;;;;13.13;4.43;;;;;;;14.73;100.00;101734.72;7386550;19;20010;-76
2022/08/21 04:04:46;;;;;;;;;;;;;;;14.76;100.00;101733.88;7388533;19;20002;-76
2022/08/21 04:07:18;;;;;;;15.35;4.32;;;;;;;14.76;100.00;101733.00;7386722;19;19923;-76
2022/08/21 04:09:51;;;;;;;10.10;3.65;;;;;;;14.80;100.00;101738.31;7386626;19;20015;-75
2022/08/21 04:12:23;;;;;;;9.48;3.90;;;;;;;14.77;100.00;101742.69;7381707;19;20022;-73
2022/08/21 04:14:53;;;;;;;13.13;4.90;;;;;;;14.76;100.00;101740.91;7383692;19;20576;-73
2022/08/21 04:17:23;;;;;;;16.63;4.57;;;;;;;14.72;100.00;101738.25;7385682;19;20037;-73
2022/08/21 04:19:54;;;;;;;11.15;4.28;;;;;;;14.75;100.00;101741.78;7384792;19;20022;-74
2022/08/21 04:22:24;;;;;;;9.63;3.53;;;;;;;14.73;100.00;101745.28;7385178;19;20010;-75
2022/08/21 04:24:56;;;;;;;14.95;4.50;;;;;;;14.71;100.00;101744.38;7383377;19;20010;-74
2022/08/21 04:27:28;;;;;;;11.32;4.55;;;;;;;14.75;100.00;101744.44;7383668;19;20040;-73
2022/08/21 04:29:59;;;;;;;17.10;4.30;;;;;;;14.74;100.00;101746.19;7382669;19;20753;-74
2022/08/21 04:32:35;;;;;;;12.65;4.00;;;;;;;14.81;100.00;101752.41;7381567;19;20011;-74
2022/08/21 04:35:08;;;;;;;13.52;4.38;;;;;;;14.82;100.00;101746.25;7382473;19;20055;-73
2022/08/21 04:37:39;;;;;;;12.18;4.30;;;;;;;14.78;100.00;101750.63;7384326;19;20010;-73
2022/08/21 04:40:16;;;;;;;13.23;3.92;;;;;;;14.81;100.00;101760.34;7384287;19;20085;-75
2022/08/21 04:42:49;;;;;;;15.68;4.95;;;;;;;14.81;100.00;101762.97;7386190;19;20003;-73
2022/08/21 04:45:22;;;;;;;10.73;4.60;;;;;;;14.82;100.00;101760.34;7380807;19;20007;-76
2022/08/21 04:47:53;;;;;;;15.43;4.47;;;;;;;14.84;100.00;101763.00;7380348;19;20040;-75
2022/08/21 04:50:27;;;;;;;18.83;4.82;;;;;;;14.82;100.00;101757.72;7381700;19;20014;-73
2022/08/21 04:52:57;;;;;;;;;;;;;;;14.81;100.00;101762.97;7378583;19;20002;-76
2022/08/21 04:55:31;;;;;;;18.35;4.70;;;;;;;14.80;100.00;101770.00;7380741;19;20349;-73
2022/08/21 04:58:02;;;;;;;;;;;;;;;14.81;100.00;101768.25;7382148;19;20013;-72
2022/08/21 05:00:35;;;;;;;10.43;3.90;;;;;;;14.82;100.00;101770.91;7381562;19;19940;-75
2022/08/21 05:03:12;;;;;;;12.68;4.07;;;;;;;14.82;100.00;101776.19;7385226;19;20014;-76
2022/08/21 05:05:43;;;;;;;14.20;4.55;;;;;;;14.84;100.00;101770.94;7384210;19;20010;-76
2022/08/21 05:08:17;;;;;;;12.40;4.78;;;;;;;14.85;100.00;101778.88;7386441;19;20006;-76
2022/08/21 05:10:50;;;;;;;14.57;4.50;;;;;;;14.85;100.00;101778.00;7384880;19;20023;-73
2022/08/21 05:13:22;;;;;;;16.48;4.95;;;;;;;14.87;100.00;101773.59;7387723;19;20031;-76
2022/08/21 05:15:52;;;;;;;19.75;4.95;;;;;;;14.90;100.00;101765.72;7386247;19;20506;-76
2022/08/21 05:18:22;;;;;;;14.05;5.43;;;;;;;14.92;100.00;101771.91;7386614;19;20014;-76
2022/08/21 05:20:52;;;;;;;10.82;4.50;;;;;;;14.96;100.00;101760.50;7387253;19;20418;-73
2022/08/21 05:23:29;;;;;;;13.30;6.05;;;;;;;15.00;100.00;101764.94;7391418;19;20028;-74
2022/08/21 05:26:15;;;;;;;16.83;5.70;;;;;;;15.04;100.00;101774.66;7384441;19;20016;-75
2022/08/21 05:28:47;;;;;;;15.10;5.30;;;;;;;15.09;100.00;101772.94;7379017;19;20003;-75
2022/08/21 05:31:17;;;;;;;14.93;5.50;;;;;;;15.14;100.00;101771.25;7380601;19;20404;-75
2022/08/21 05:33:47;;;;;;;17.73;5.20;;;;;;;15.21;100.00;101769.53;7377989;19;20007;-72
2022/08/21 05:36:21;;;;;;;17.38;4.40;;;;;;;15.28;100.00;101771.38;7380501;19;20018;-75
2022/08/21 05:38:51;;;;;;;15.15;5.40;;;;;;;15.38;100.00;101774.09;7380199;19;20014;-73
2022/08/21 05:41:23;;;;;;;15.60;5.10;;;;;;;15.49;100.00;101778.59;7378061;19;20014;-74
2022/08/21 05:43:53;;;;;;;16.63;5.83;;;;;;;15.60;100.00;101774.31;7378027;19;20010;-75
2022/08/21 05:46:23;;;;;;;16.25;5.65;;;;;;;15.70;100.00;101771.72;7381553;19;20014;-76
2022/08/21 05:48:53;;;;;;;18.85;6.10;;;;;;;15.88;100.00;101768.31;7378856;19;20010;-76
2022/08/21 05:51:23;;;;;;;15.15;6.00;;;;;;;16.03;100.00;101767.50;7380070;19;20628;-73
2022/08/21 05:53:53;;;;;;;16.48;5.68;;;;;;;16.19;100.00;101771.13;7375999;19;20097;-73
2022/08/21 05:56:27;;;;;;;17.85;6.05;;;;;;;16.34;100.00;101769.44;7376995;19;20014;-73
2022/08/21 05:58:56;;;;;;;14.15;6.00;;;;;;;16.54;100.00;101772.16;7381334;19;20281;-76
2022/08/21 06:01:38;;;;;;;18.48;5.88;;;;;;;16.76;100.00;101769.59;7375013;19;20289;-77
2022/08/21 06:04:10;;;;;;;13.45;5.57;;;;;;;16.81;100.00;101775.78;7375337;19;20098;-73
2022/08/21 06:06:40;;;;;;;18.25;6.50;;;;;;;16.98;100.00;101776.69;7377585;19;20014;-73
2022/08/21 06:09:13;;;;;;;15.90;5.57;;;;;;;17.12;100.00;101774.06;7380116;19;20014;-75
2022/08/21 06:11:45;;;;;;;20.23;6.32;;;;;;;17.22;100.00;101779.38;7380882;19;20041;-76
2022/08/21 06:14:16;;;;;;;16.73;6.05;;;;;;;17.40;100.00;101772.31;7380025;19;20637;-74
2022/08/21 06:16:47;;;;;;;10.88;5.35;;;;;;;17.58;100.00;101777.63;7379904;19;20017;-77
2022/08/21 06:19:17;;;;;;;14.18;5.40;;;;;;;17.74;100.00;101768.75;7377400;19;20010;-79
2022/08/21 06:21:47;;;;;;;14.43;5.45;;;;;;;17.85;100.00;101766.09;7378080;19;20018;-74
2022/08/21 06:24:17;;;;;;;13.70;4.93;;;;;;;18.01;100.00;101767.84;7375004;19;20027;-73
2022/08/21 06:26:50;;;;;;;17.98;5.93;;;;;;;18.08;100.00;101768.69;7375578;19;20070;-76
2022/08/21 06:29:20;;;;;;;16.88;5.75;;;;;;;18.17;100.00;101761.59;7379439;19;20470;-73
2022/08/21 06:31:51;;;;;;;17.02;6.18;;;;;;;18.21;100.00;101759.81;7376016;19;20015;-74
2022/08/21 06:34:21;;;;;;;24.35;7.18;;;;;;;18.37;100.00;101763.28;7378921;19;20351;-76
2022/08/21 06:36:56;;;;;;;15.18;6.35;;;;;;;18.47;100.00;101757.94;7378237;19;20106;-73
2022/08/21 06:39:28;;;;;;;18.75;5.90;;;;;;;18.69;100.00;101769.38;7381726;19;20010;-77
2022/08/21 06:42:08;;;;;;;;;;;;;;;18.72;100.00;101760.50;7386224;19;20086;-75
2022/08/21 06:44:39;;;;;;;16.85;6.63;;;;;;;18.74;100.00;101754.25;7386380;19;19923;-73
2022/08/21 06:47:08;;;;;;;15.45;6.45;;;;;;;18.98;100.00;101761.19;7383763;19;20020;-75
2022/08/21 06:49:39;;;;;;;19.20;6.45;;;;;;;19.25;100.00;101758.31;7381898;19;20018;-73
2022/08/21 06:52:11;;;;;;;17.15;5.93;;;;;;;19.28;100.00;101758.31;7389965;19;20002;-77
2022/08/21 06:54:42;;;;;;;17.92;5.70;;;;;;;19.53;100.00;101760.78;7380574;19;20015;-73
2022/08/21 06:57:15;;;;;;;19.50;6.28;;;;;;;19.65;100.00;101759.78;7390094;19;20028;-77
2022/08/21 06:59:47;;;;;;;17.40;6.55;;;;;;;19.84;100.00;101761.34;7389075;19;20523;-75
2022/08/21 07:02:17;;;;;;;15.07;5.32;;;;;;;19.98;100.00;101759.41;7388640;19;20010;-77
2022/08/21 07:04:47;;;;;;;18.05;5.55;;;;;;;19.96;100.00;101765.66;7387774;19;20015;-74
2022/08/21 07:07:17;;;;;;;25.30;6.35;;;;;;;19.83;100.00;101765.78;7379733;19;20023;-73
2022/08/21 07:09:46;;;;;;;14.18;6.00;;;;;;;19.89;100.00;101757.75;7385441;19;20475;-74
2022/08/21 07:12:19;;;;;;;22.65;6.38;;;;;;;20.04;100.00;101770.00;7388033;19;20006;-78
2022/08/21 07:14:49;;;;;;;16.08;5.88;;;;;;;20.19;100.00;101759.19;7392250;19;20006;-73
2022/08/21 07:17:19;;;;;;;16.15;5.88;;;;;;;20.36;100.00;101766.97;7382291;19;20472;-74
2022/08/21 07:19:51;;;;;;;18.63;5.85;;;;;;;20.51;100.00;101761.47;7387733;19;20446;-73
2022/08/21 07:22:22;;;;;;;17.88;5.55;;;;;;;20.63;100.00;101764.88;7381401;19;20440;-72
2022/08/21 07:24:52;;;;;;;14.38;5.50;;;;;;;20.82;100.00;101769.03;7387436;19;20010;-72
2022/08/21 07:27:25;;;;;;;15.77;5.53;;;;;;;20.89;100.00;101768.91;7380940;19;20404;-73
2022/08/21 07:29:55;;;;;;;14.30;5.82;;;;;;;20.81;100.00;101772.59;7384034;19;20007;-75
2022/08/21 07:32:29;;;;;;;20.40;5.97;;;;;;;20.94;100.00;101766.19;7382354;19;20020;-73
2022/08/21 07:35:04;;;;;;;14.43;5.43;;;;;;;21.18;100.00;101755.13;7382238;19;20006;-74
2022/08/21 07:37:40;;;;;;;20.02;5.90;;;;;;;21.60;100.00;101758.03;7383702;19;21510;-77
2022/08/21 07:40:20;;;;;;;21.00;6.50;;;;;;;21.68;100.00;101756.09;7388373;19;20011;-76
2022/08/21 07:43:02;;;;;;;17.77;6.18;;;;;;;21.70;100.00;101756.94;7386891;19;20007;-76
2022/08/21 07:45:51;;;;;;;14.52;5.90;;;;;;;21.53;100.00;101757.25;7389381;19;20019;-74
2022/08/21 07:48:24;;;;;;;12.32;5.80;;;;;;;21.65;100.00;101752.59;7386695;19;20006;-76
2022/08/21 07:51:26;;;;;;;15.70;5.20;;;;;;;21.74;100.00;101756.00;7389807;19;20077;-75
2022/08/21 07:54:54;;;;;;;14.30;5.63;;;;;;;22.32;100.00;101752.19;7382412;19;20066;-75
2022/08/21 07:57:35;;;;;;;14.95;5.25;;;;;;;22.41;100.00;101754.66;7387705;19;20474;-77
2022/08/21 08:00:43;;;;;;;12.55;5.30;;;;;;;22.61;100.00;101756.91;7385827;19;20342;-75
2022/08/21 08:06:28;;;;;;;14.95;5.47;;;;;;;22.35;100.00;101762.81;7389422;19;20393;-76
2022/08/21 08:09:17;;;;;;;14.80;4.88;;;;;;;22.88;100.00;101766.09;7389956;19;20015;-75
2022/08/21 08:12:21;;;;;;;15.73;5.03;;;;;;;22.63;100.00;101762.22;7392748;19;20018;-76
2022/08/21 08:14:50;;;;;;;12.10;5.13;;;;;;;22.50;100.00;101759.81;7387085;19;20082;-76
2022/08/21 08:21:11;;;;;;;;;;;;;;;;;;;;;
2022/08/21 08:23:43;;;;;;;18.70;5.30;;;;;;;22.05;100.00;101755.41;7388741;19;20013;-76
2022/08/21 08:26:15;;;;;;;12.60;5.57;;;;;;;22.03;100.00;101754.56;7390870;19;20023;-73
2022/08/21 08:28:49;;;;;;;13.65;4.72;;;;;;;21.94;100.00;101750.25;7388925;19;20031;-75
2022/08/21 08:31:23;;;;;;;11.38;4.10;;;;;;;22.23;100.00;101744.34;7386348;19;20090;-75
2022/08/21 08:33:55;;;;;;;11.52;5.22;;;;;;;22.29;100.00;101749.56;7388558;19;20015;-80
2022/08/21 08:36:38;;;;;;;13.88;5.30;;;;;;;22.44;100.00;101754.59;7400244;19;20014;-76
2022/08/21 08:39:11;;;;;;;12.50;4.93;;;;;;;22.80;100.00;101746.72;7407158;19;20876;-73
2022/08/21 08:42:07;;;;;;;11.65;5.07;;;;;;;23.35;100.00;101748.03;7382957;19;20021;-73
2022/08/21 08:45:13;;;;;;;13.18;4.05;;;;;;;23.61;100.00;101745.59;7380622;19;20078;-76
2022/08/21 08:48:35;;;;;;;12.25;4.40;;;;;;;23.60;100.00;101743.84;7390974;19;20038;-78
2022/08/21 08:51:45;;;;;;;17.05;5.45;;;;;;;23.14;100.00;101742.28;7385240;19;20449;-78
2022/08/21 08:54:20;;;;;;;14.27;4.93;;;;;;;23.63;100.00;101730.38;7380118;19;20011;-72
2022/08/21 08:56:54;;;;;;;12.25;4.43;;;;;;;23.85;100.00;101735.13;7379561;19;20014;-74
2022/08/21 08:59:36;;;;;;;12.57;4.43;;;;;;;24.17;100.00;101732.41;7380063;19;20022;-77
2022/08/21 09:02:08;;;;;;;11.45;4.60;;;;;;;24.39;100.00;101728.19;7377895;19;20540;-74
2022/08/21 09:04:41;;;;;;;12.02;4.38;;;;;;;24.83;99.45;101734.00;7385043;19;20022;-77
2022/08/21 09:07:22;;;;;;;13.15;4.70;;;;;;;24.29;100.00;101736.56;7389178;19;20014;-78
2022/08/21 09:10:04;;;;;;;15.32;4.85;;;;;;;24.54;97.58;101736.72;7385814;19;20039;-75
2022/08/21 09:12:48;;;;;;;12.55;4.25;;;;;;;24.68;96.93;101745.22;7380719;19;20018;-75
2022/08/21 09:15:28;;;;;;;12.30;4.43;;;;;;;24.62;95.29;101734.66;7391017;19;20577;-77
2022/08/21 09:18:15;;;;;;;11.60;4.18;;;;;;;24.51;97.28;101748.41;7386910;19;20018;-77
2022/08/21 09:21:00;;;;;;;11.25;4.15;;;;;;;25.15;97.47;101741.00;7384629;19;20022;-75
2022/08/21 09:23:52;;;;;;;9.45;3.83;;;;;;;24.99;91.01;101737.94;7377533;19;21466;-78
2022/08/21 09:26:28;;;;;;;11.02;3.67;;;;;;;24.57;94.37;101736.59;7390426;19;20007;-76
2022/08/21 09:29:07;;;;;;;12.95;3.92;;;;;;;25.21;91.14;101745.31;7389432;19;20092;-76
2022/08/21 09:31:40;;;;;;;8.20;3.70;;;;;;;25.07;90.80;101745.75;7387910;19;20023;-77
2022/08/21 09:34:13;;;;;;;;;;;;;;;25.13;90.50;101748.22;7397407;19;20031;-78
2022/08/21 09:36:49;;;;;;;6.63;2.95;;;;;;;25.87;87.77;101747.50;7389240;19;20308;-73
2022/08/21 09:39:29;;;;;;;10.00;3.35;;;;;;;24.65;95.86;101750.66;7390217;19;20479;-74
2022/08/21 09:42:13;;;;;;;12.18;3.45;;;;;;;24.74;96.20;101751.25;7397849;19;20589;-79
2022/08/21 09:44:44;;;;;;;10.57;3.83;;;;;;;24.58;94.79;101749.97;7399498;19;20014;-75
2022/08/21 09:47:15;;;;;;;10.43;3.35;;;;;;;24.92;93.14;101751.63;7386424;19;20015;-74
2022/08/21 09:49:46;;;;;;;12.45;3.28;;;;;;;25.54;88.10;101744.16;7386446;19;20018;-75
2022/08/21 09:52:22;;;;;;;9.00;3.05;;;;;;;24.70;86.70;101743.34;7380513;19;20467;-74
2022/08/21 09:54:59;;;;;;;12.82;3.65;;;;;;;24.17;95.15;101759.19;7382142;19;20075;-74
2022/08/21 09:57:46;;;;;;;10.30;3.20;;;;;;;23.89;100.00;101755.56;7384007;19;20467;-75
2022/08/21 10:00:35;;;;;;;13.68;3.45;;;;;;;23.58;100.00;101758.19;7393956;19;20018;-80
2022/08/21 10:03:18;;;;;;;8.10;3.30;;;;;;;23.99;100.00;101751.69;7386403;19;20444;-73
2022/08/21 10:05:59;;;;;;;9.10;3.17;;;;;;;24.27;100.00;101747.31;7379381;19;20007;-73
2022/08/21 10:08:40;;;;;;;9.88;3.10;;;;;;;23.62;98.66;101742.00;7387136;19;20391;-77
2022/08/21 10:11:17;;;;;;;10.68;3.17;;;;;;;23.97;100.00;101746.38;7382272;19;20044;-74
2022/08/21 10:14:15;;;;;;;9.80;3.38;;;;;;;24.08;98.99;101740.69;7390621;19;20073;-73
2022/08/21 10:16:59;;;;;;;9.43;3.33;;;;;;;24.96;93.67;101734.50;7387289;19;20018;-74
2022/08/21 10:19:41;;;;;;;10.00;3.45;;;;;;;25.20;88.30;101735.50;7389536;19;20482;-74
2022/08/21 10:22:29;;;;;;;12.98;3.33;;;;;;;25.58;84.95;101737.75;7389771;19;20736;-74
2022/08/21 10:25:16;;;;;;;11.25;3.03;;;;;;;25.53;85.90;101737.03;7398752;19;20019;-77
2022/08/21 10:28:05;;;;;;;12.88;3.72;;;;;;;25.95;82.70;101733.78;7399670;19;20010;-73
2022/08/21 10:30:49;;;;;;;9.57;2.75;;;;;;;25.50;81.59;101741.63;7392227;19;20011;-75
2022/08/21 10:33:37;;;;;;;13.63;2.92;;;;;;;25.58;82.23;101737.75;7395683;19;20007;-75
2022/08/21 10:36:16;;;;;;;7.07;2.67;;;;;;;25.59;82.01;101731.44;7385708;19;20104;-74
2022/08/21 10:38:57;;;;;;;10.27;3.08;;;;;;;25.01;81.75;101732.53;7378324;19;20031;-74
2022/08/21 10:42:13;;;;;;;10.07;2.88;;;;;;;25.00;83.05;101726.28;7377695;19;20026;-74
2022/08/21 10:44:55;;;;;;;8.20;2.60;;;;;;;25.66;78.07;101726.78;7371299;19;20240;-73
2022/08/21 10:47:35;;;;;;;9.32;2.80;;;;;;;25.78;79.87;101730.84;7376116;19;20556;-74
2022/08/21 10:50:20;;;;;;;14.90;2.88;;;;;;;26.25;78.74;101726.38;7378949;19;20010;-75
2022/08/21 10:53:08;;;;;;;8.30;2.85;;;;;;;25.28;77.33;101730.75;7373559;19;20026;-76
2022/08/21 10:55:44;;;;;;;10.07;2.85;;;;;;;25.28;81.46;101730.75;7377412;19;20014;-77
2022/08/21 10:58:27;;;;;;;9.88;2.75;;;;;;;25.63;78.74;101729.53;7381679;19;20018;-78
2022/08/21 11:01:13;;;;;;;10.68;3.00;;;;;;;25.94;76.35;101743.66;7377803;19;20006;-77
2022/08/21 11:03:46;;;;;;;7.78;2.65;;;;;;;25.74;78.52;101733.63;7376571;19;20388;-76
2022/08/21 11:06:22;;;;;;;10.02;2.35;;;;;;;24.77;80.96;101739.56;7377704;19;20048;-76
2022/08/21 11:09:00;;;;;;;7.75;2.42;;;;;;;25.33;79.42;101743.09;7377076;19;20011;-76
2022/08/21 11:11:44;;;;;;;9.48;2.40;;;;;;;25.55;77.12;101745.03;7375096;19;21624;-75
2022/08/21 11:14:44;;;;;;;9.82;2.83;;;;;;;25.63;79.55;101738.47;7381979;19;20323;-77
2022/08/21 11:17:31;;;;;;;7.05;2.58;;;;;;;25.72;76.94;101743.56;7384605;19;20013;-75
2022/08/21 11:20:15;;;;;;;11.50;3.03;;;;;;;26.19;74.41;101738.22;7376799;19;20019;-75
2022/08/21 11:22:54;;;;;;;5.50;2.30;;;;;;;26.11;72.62;101740.31;7381111;19;20039;-76
2022/08/21 11:25:47;;;;;;;10.77;3.10;;;;;;;25.91;70.67;101746.47;7382665;19;20374;-76
2022/08/21 11:28:24;;;;;;;7.50;2.47;;;;;;;26.37;72.09;101748.31;7383663;19;20053;-75
2022/08/21 11:31:14;;;;;;;9.55;2.63;;;;;;;26.47;71.40;101747.97;7382894;19;20039;-74
2022/08/21 11:34:00;;;;;;;8.63;2.10;;;;;;;25.99;72.52;101755.13;7382040;19;20018;-75
2022/08/21 11:36:43;;;;;;;6.53;2.20;;;;;;;25.32;73.25;101757.44;7383501;19;20508;-76
2022/08/21 11:39:24;;;;;;;10.77;2.58;;;;;;;24.59;75.69;101753.53;7385240;19;20013;-77
2022/08/21 11:42:02;;;;;;;8.00;2.35;;;;;;;25.19;77.39;101757.91;7383948;19;20010;-75
2022/08/21 11:44:46;;;;;;;;;;;;;;;25.65;74.27;101758.13;7375318;19;20046;-76
2022/08/21 11:47:22;;;;;;;8.82;2.78;;;;;;;25.83;71.61;101755.72;7380581;19;19988;-76
2022/08/21 11:50:11;;;;;;;6.90;2.35;;;;;;;25.85;69.63;101754.75;7383836;19;21365;-77
2022/08/21 11:53:14;;;;;;;9.05;2.28;;;;;;;25.66;67.54;101759.00;7379480;19;20015;-75
2022/08/21 11:55:48;;;;;;;9.23;2.60;;;;;;;26.03;65.56;101761.22;7392375;19;20021;-77
2022/08/21 11:58:24;;;;;;;7.20;2.47;;;;;;;25.94;67.17;101743.66;7396241;19;20090;-75
2022/08/21 12:01:02;;;;;;;11.52;3.08;;;;;;;25.80;64.19;101753.16;7392150;19;20018;-75
2022/08/21 12:03:40;;;;;;;6.97;2.30;;;;;;;25.50;65.91;101741.63;7388464;19;20010;-75